Time;durP1;ratioP1;P1;durP2;ratioP2;P2;SDS_P1;SDS_P2;PMS_P1;PMS_P2;Temp;Humidity;BMP_temperature;BMP_pressure;BME280_temperature;BME280_humidity;BME280_pressure;Samples;Min_cycle;Max_cycle;Signal;HPM_P1;HPM_P2
2021/04/12 00:03:30;;;;;;;5.03;2.88;;;6.10;80.40;;;;;;10098091;28;20064;-68
2021/04/12 00:08:32;;;;;;;4.28;3.28;;;6.00;79.60;;;;;;10095270;28;20085;-67
2021/04/12 00:13:45;;;;;;;2.88;2.28;;;6.10;79.70;;;;;;10098359;28;20039;-66
2021/04/12 00:18:49;;;;;;;4.80;2.72;;;6.20;80.00;;;;;;10097197;28;20425;-66
2021/04/12 00:23:54;;;;;;;5.78;2.78;;;6.10;79.60;;;;;;10097711;28;20047;-67
2021/04/12 00:28:51;;;;;;;4.95;2.95;;;6.20;80.40;;;;;;10080666;28;20040;-66
2021/04/12 00:33:48;;;;;;;7.03;3.05;;;6.20;80.20;;;;;;10096533;28;20122;-67
2021/04/12 00:38:56;;;;;;;7.07;2.95;;;6.00;79.90;;;;;;10095282;28;20036;-66
2021/04/12 00:44:25;;;;;;;5.43;4.00;;;6.10;79.90;;;;;;10095049;28;20235;-67
2021/04/12 00:49:41;;;;;;;4.28;2.45;;;6.00;79.90;;;;;;10078838;28;20072;-67
2021/04/12 00:55:10;;;;;;;5.45;3.08;;;6.10;80.00;;;;;;10095562;28;20047;-70
2021/04/12 01:00:11;;;;;;;4.53;2.65;;;6.10;79.70;;;;;;10091840;28;20052;-67
2021/04/12 01:05:10;;;;;;;4.75;2.97;;;6.10;80.40;;;;;;10094590;28;20149;-65
2021/04/12 01:10:10;;;;;;;4.47;2.60;;;5.90;80.00;;;;;;10096171;28;20024;-66
2021/04/12 01:15:26;;;;;;;5.80;3.17;;;5.80;81.10;;;;;;10094132;28;20260;-68
2021/04/12 01:20:48;;;;;;;3.72;2.33;;;5.80;80.80;;;;;;10095905;28;20322;-68
2021/04/12 01:26:12;;;;;;;3.80;2.17;;;5.80;81.30;;;;;;10093908;28;20055;-72
2021/04/12 01:31:33;;;;;;;6.13;2.65;;;5.80;80.60;;;;;;10094290;28;20041;-67
2021/04/12 01:36:24;;;;;;;3.53;1.83;;;5.70;80.60;;;;;;10093457;28;20816;-68
2021/04/12 01:41:37;;;;;;;3.45;2.42;;;5.70;80.80;;;;;;10094289;28;21427;-67
2021/04/12 01:46:36;;;;;;;4.18;2.60;;;5.70;80.40;;;;;;10093203;28;20037;-68
2021/04/12 01:51:54;;;;;;;3.42;2.22;;;5.50;80.40;;;;;;10089770;28;20035;-66
2021/04/12 01:57:22;;;;;;;4.53;2.45;;;5.50;81.00;;;;;;10075230;28;20213;-67
2021/04/12 02:02:37;;;;;;;3.30;2.13;;;5.80;80.50;;;;;;10092201;28;20032;-66
2021/04/12 02:07:43;;;;;;;4.03;2.45;;;5.60;80.40;;;;;;10093028;28;20094;-67
2021/04/12 02:13:28;;;;;;;4.50;2.75;;;5.80;80.30;;;;;;10093111;28;20036;-66
2021/04/12 02:18:57;;;;;;;4.85;2.60;;;5.70;80.40;;;;;;10039198;28;20032;-66
2021/04/12 02:24:04;;;;;;;6.30;2.80;;;5.50;81.30;;;;;;10108998;28;20036;-66
2021/04/12 02:29:20;;;;;;;6.30;2.75;;;5.50;81.20;;;;;;10092030;28;20446;-67
2021/04/12 02:34:26;;;;;;;4.70;2.53;;;5.40;80.80;;;;;;10092500;28;20101;-67
2021/04/12 02:39:34;;;;;;;5.63;3.05;;;5.40;81.30;;;;;;10091598;28;20044;-67
2021/04/12 02:44:33;;;;;;;6.00;2.92;;;5.30;81.00;;;;;;10092623;28;20024;-66
2021/04/12 02:50:01;;;;;;;6.10;3.25;;;5.20;81.30;;;;;;10092074;28;20542;-68
2021/04/12 02:55:19;;;;;;;7.97;4.07;;;5.40;81.30;;;;;;10090544;28;20028;-68
2021/04/12 03:00:13;;;;;;;6.47;3.33;;;5.30;80.80;;;;;;10091633;28;20549;-68
2021/04/12 03:05:23;;;;;;;5.55;3.95;;;5.40;81.00;;;;;;10089941;28;20033;-67
2021/04/12 03:10:28;;;;;;;7.47;4.25;;;5.30;81.00;;;;;;10091313;28;20375;-66
2021/04/12 03:15:18;;;;;;;7.88;3.60;;;5.40;81.20;;;;;;10090698;28;20086;-67
2021/04/12 03:20:28;;;;;;;9.38;3.85;;;5.40;81.10;;;;;;10091128;28;20571;-68
2021/04/12 03:25:45;;;;;;;6.28;3.58;;;5.30;80.50;;;;;;10090967;28;20099;-68
2021/04/12 03:31:14;;;;;;;5.65;3.28;;;5.20;81.30;;;;;;10091388;28;20053;-67
2021/04/12 03:36:10;;;;;;;6.03;3.55;;;5.20;81.60;;;;;;10032914;28;20060;-71
2021/04/12 03:41:15;;;;;;;4.50;2.85;;;5.20;81.20;;;;;;10089039;28;21452;-68
2021/04/12 03:46:37;;;;;;;6.30;3.17;;;5.10;81.70;;;;;;10066874;28;20028;-67
2021/04/12 03:51:46;;;;;;;6.55;2.78;;;5.00;80.80;;;;;;10088108;28;20037;-66
2021/04/12 03:57:02;;;;;;;4.90;2.13;;;4.90;81.80;;;;;;10095758;28;20041;-70
2021/04/12 04:02:18;;;;;;;4.05;2.45;;;4.90;82.40;;;;;;10104631;28;20102;-68
2021/04/12 04:07:33;;;;;;;4.87;2.43;;;5.10;81.60;;;;;;10088859;28;20055;-69
2021/04/12 04:12:48;;;;;;;3.75;2.50;;;5.00;81.40;;;;;;10094521;28;20275;-67
2021/04/12 04:18:13;;;;;;;5.05;2.15;;;5.00;81.80;;;;;;10094323;28;20029;-68
2021/04/12 04:23:23;;;;;;;5.97;2.78;;;5.00;82.30;;;;;;10093272;28;20472;-67
2021/04/12 04:28:48;;;;;;;4.18;2.25;;;5.20;81.80;;;;;;10094711;28;20028;-68
2021/04/12 04:33:44;;;;;;;4.38;2.63;;;5.20;81.90;;;;;;10085551;28;20550;-67
2021/04/12 04:38:54;;;;;;;4.72;2.13;;;5.30;81.50;;;;;;10056624;28;20407;-67
2021/04/12 04:44:09;;;;;;;4.78;2.33;;;5.20;81.60;;;;;;10056291;28;20731;-67
2021/04/12 04:49:27;;;;;;;4.65;2.70;;;5.10;81.90;;;;;;10070019;28;20040;-67
2021/04/12 04:54:55;;;;;;;6.90;2.90;;;5.20;81.60;;;;;;10063185;28;20073;-69
2021/04/12 05:00:17;;;;;;;4.10;2.58;;;5.40;80.90;;;;;;10066529;28;20725;-67
2021/04/12 05:05:20;;;;;;;5.07;2.72;;;5.60;80.40;;;;;;10041050;28;20052;-68
2021/04/12 05:10:54;;;;;;;5.65;3.28;;;5.60;80.30;;;;;;10062154;28;20433;-69
2021/04/12 05:16:02;;;;;;;5.28;2.90;;;5.70;79.90;;;;;;10039015;28;20149;-68
2021/04/12 05:21:20;;;;;;;5.53;3.20;;;5.70;79.90;;;;;;10053658;28;20052;-68
2021/04/12 05:26:25;;;;;;;6.78;3.03;;;5.70;79.90;;;;;;10054761;28;20400;-68
2021/04/12 05:32:20;;;;;;;8.02;3.13;;;5.80;80.00;;;;;;10054509;28;20381;-68
2021/04/12 05:37:39;;;;;;;8.75;3.55;;;5.90;80.00;;;;;;9967708;28;20479;-69
2021/04/12 05:43:11;;;;;;;6.60;3.42;;;5.90;80.00;;;;;;10047431;28;20068;-68
2021/04/12 05:48:33;;;;;;;6.50;4.18;;;5.90;80.60;;;;;;10036080;28;20078;-64
2021/04/12 05:53:39;;;;;;;6.82;3.70;;;6.10;79.70;;;;;;10089705;28;20743;-67
2021/04/12 05:58:51;;;;;;;5.32;3.22;;;6.00;79.70;;;;;;10099011;28;20288;-65
2021/04/12 06:03:59;;;;;;;6.68;3.53;;;6.00;79.90;;;;;;10090296;28;20302;-63
2021/04/12 06:09:08;;;;;;;6.85;3.72;;;6.00;79.70;;;;;;10088556;28;20043;-63
2021/04/12 06:14:10;;;;;;;6.97;4.05;;;6.30;79.30;;;;;;10096297;28;20117;-61
2021/04/12 06:19:38;;;;;;;8.00;4.85;;;6.20;79.10;;;;;;10079988;28;20029;-64
2021/04/12 06:24:47;;;;;;;9.90;5.07;;;6.20;78.50;;;;;;10095302;28;20156;-64
2021/04/12 06:30:07;;;;;;;8.80;4.75;;;6.20;78.90;;;;;;10092250;28;20025;-61
2021/04/12 06:35:29;;;;;;;8.60;5.05;;;6.20;79.20;;;;;;10073230;28;20340;-63
2021/04/12 06:40:38;;;;;;;7.25;4.55;;;6.30;78.60;;;;;;10091589;28;20100;-63
2021/04/12 06:45:53;;;;;;;8.57;4.93;;;6.50;78.80;;;;;;10094112;28;20532;-62
2021/04/12 06:51:14;;;;;;;8.63;4.82;;;6.50;78.60;;;;;;10078630;28;20514;-62
2021/04/12 06:56:18;;;;;;;10.15;6.13;;;6.50;78.40;;;;;;10102760;28;20036;-64
2021/04/12 07:01:46;;;;;;;8.02;4.82;;;6.40;78.50;;;;;;10097408;28;20057;-63
2021/04/12 07:07:00;;;;;;;9.50;5.78;;;6.60;78.40;;;;;;10079301;28;20646;-64
2021/04/12 07:12:22;;;;;;;6.60;4.15;;;6.60;78.10;;;;;;10088948;28;20036;-64
2021/04/12 07:17:31;;;;;;;8.85;4.90;;;6.60;78.50;;;;;;10086299;28;20028;-63
2021/04/12 07:23:00;;;;;;;6.20;3.72;;;6.90;77.70;;;;;;10113314;28;20570;-61
2021/04/12 07:28:05;;;;;;;10.40;5.28;;;7.00;77.50;;;;;;10088038;28;20549;-65
2021/04/12 07:33:23;;;;;;;9.10;4.97;;;7.00;77.60;;;;;;10087075;28;20037;-65
2021/04/12 07:38:42;;;;;;;7.85;4.82;;;7.00;77.40;;;;;;10088584;28;20446;-62
2021/04/12 07:43:51;;;;;;;10.10;5.35;;;7.10;77.30;;;;;;10095089;28;20086;-62
2021/04/12 07:49:20;;;;;;;9.73;4.97;;;7.00;76.80;;;;;;10102523;28;20033;-62
2021/04/12 07:54:23;;;;;;;7.50;4.90;;;7.00;76.50;;;;;;10112418;28;20811;-64
2021/04/12 07:59:30;;;;;;;9.02;4.43;;;7.10;76.60;;;;;;10104452;28;20037;-62
2021/04/12 08:04:49;;;;;;;7.45;4.97;;;7.30;76.30;;;;;;10099215;28;20035;-61
2021/04/12 08:09:40;;;;;;;9.13;4.78;;;7.40;75.80;;;;;;10079041;28;20711;-65
2021/04/12 08:15:09;;;;;;;9.35;5.10;;;7.50;75.40;;;;;;10102478;28;20020;-66
2021/04/12 08:20:54;;;;;;;7.28;4.60;;;7.40;75.10;;;;;;10094953;28;20052;-64
2021/04/12 08:26:06;;;;;;;7.50;4.50;;;7.40;75.10;;;;;;9983516;28;20236;-63
2021/04/12 08:31:28;;;;;;;9.45;5.32;;;7.30;74.80;;;;;;10070819;28;20478;-63
2021/04/12 08:36:44;;;;;;;8.82;5.38;;;7.50;74.30;;;;;;10096808;28;20073;-62
2021/04/12 08:42:02;;;;;;;8.90;5.22;;;7.50;73.30;;;;;;10105118;28;20503;-65
2021/04/12 08:47:12;;;;;;;7.78;4.50;;;7.40;72.90;;;;;;10106300;28;20543;-65
2021/04/12 08:52:27;;;;;;;12.38;6.28;;;7.30;72.60;;;;;;10101118;28;20104;-65
2021/04/12 08:57:38;;;;;;;7.70;5.93;;;7.50;72.70;;;;;;10077028;28;20071;-63
2021/04/12 09:02:58;;;;;;;10.02;4.90;;;7.40;71.40;;;;;;10095792;28;20802;-63
2021/04/12 09:08:16;;;;;;;6.65;4.63;;;7.30;71.70;;;;;;10083837;28;20025;-62
2021/04/12 09:13:45;;;;;;;6.60;5.07;;;7.40;71.40;;;;;;10101084;28;20362;-63
2021/04/12 09:19:10;;;;;;;7.05;5.07;;;7.50;70.60;;;;;;10100466;28;20039;-63
2021/04/12 09:24:29;;;;;;;6.65;4.97;;;7.80;69.10;;;;;;10104929;28;20123;-63
2021/04/12 09:29:50;;;;;;;5.80;4.20;;;8.20;68.60;;;;;;10096443;28;20033;-63
2021/04/12 09:34:59;;;;;;;6.78;4.65;;;8.10;68.30;;;;;;10107342;28;20047;-62
2021/04/12 09:40:20;;;;;;;8.20;4.38;;;8.30;68.80;;;;;;10101077;28;20426;-63
2021/04/12 09:45:14;;;;;;;5.30;3.95;;;8.40;67.00;;;;;;10097887;28;20030;-62
2021/04/12 09:50:26;;;;;;;6.05;4.50;;;8.20;67.30;;;;;;10104523;28;20155;-65
2021/04/12 09:55:49;;;;;;;5.88;2.80;;;8.40;67.00;;;;;;10092329;28;20410;-64
2021/04/12 10:00:51;;;;;;;4.78;2.50;;;8.70;65.50;;;;;;10075806;28;20577;-63
2021/04/12 10:06:31;;;;;;;4.68;2.58;;;9.30;64.60;;;;;;10084123;28;20024;-65
2021/04/12 10:11:39;;;;;;;5.72;2.50;;;8.80;62.60;;;;;;10097294;28;20063;-66
2021/04/12 10:16:34;;;;;;;4.25;2.60;;;8.70;64.10;;;;;;10075742;28;20029;-69
2021/04/12 10:21:50;;;;;;;3.13;2.58;;;8.70;63.00;;;;;;10088312;28;20041;-65
2021/04/12 10:26:47;;;;;;;5.90;3.77;;;9.00;61.20;;;;;;10104035;28;20450;-69
2021/04/12 10:31:43;;;;;;;5.35;2.50;;;9.10;60.20;;;;;;10091437;28;20283;-65
2021/04/12 10:36:41;;;;;;;5.07;2.83;;;9.30;60.50;;;;;;10094633;28;20262;-66
2021/04/12 10:41:47;;;;;;;8.38;3.08;;;9.20;58.90;;;;;;10074440;28;20047;-66
2021/04/12 10:46:43;;;;;;;3.92;2.70;;;9.00;58.00;;;;;;10096674;28;20021;-69
2021/04/12 10:51:46;;;;;;;4.85;2.50;;;9.00;59.30;;;;;;10087668;28;20029;-67
2021/04/12 10:56:49;;;;;;;4.50;2.50;;;8.70;58.80;;;;;;10093803;28;20457;-65
2021/04/12 11:01:39;;;;;;;3.92;2.60;;;8.70;58.60;;;;;;10076744;28;20029;-68
2021/04/12 11:07:00;;;;;;;2.50;1.85;;;8.90;57.90;;;;;;10074595;28;20040;-67
2021/04/12 11:12:22;;;;;;;3.13;2.20;;;9.20;55.90;;;;;;10077048;28;20025;-67
2021/04/12 11:17:40;;;;;;;2.58;2.22;;;10.10;55.40;;;;;;10093250;28;20033;-63
2021/04/12 11:22:58;;;;;;;7.65;2.70;;;9.90;55.50;;;;;;10082969;28;20036;-64
2021/04/12 11:28:03;;;;;;;1.95;1.58;;;9.40;54.60;;;;;;10076228;28;20043;-63
2021/04/12 11:33:24;;;;;;;4.45;2.00;;;8.90;55.40;;;;;;10086214;28;20110;-67
2021/04/12 11:38:20;;;;;;;4.32;2.97;;;9.20;54.70;;;;;;10100321;28;20067;-66
2021/04/12 11:43:15;;;;;;;;;;;9.50;54.80;;;;;;10078627;28;20306;-66
2021/04/12 11:48:42;;;;;;;3.20;2.35;;;10.00;52.20;;;;;;10097675;28;20286;-63
2021/04/12 11:53:44;;;;;;;2.22;2.03;;;10.30;52.70;;;;;;10091234;28;20060;-67
2021/04/12 11:58:56;;;;;;;2.95;1.73;;;9.90;53.10;;;;;;10092451;28;20033;-64
2021/04/12 12:03:53;;;;;;;3.03;1.38;;;9.90;53.30;;;;;;10093562;28;20080;-67
2021/04/12 12:09:01;;;;;;;3.80;1.90;;;9.90;53.10;;;;;;10111967;28;20029;-65
2021/04/12 12:13:57;;;;;;;2.45;1.45;;;10.30;51.90;;;;;;10079615;28;20047;-69
2021/04/12 12:18:53;;;;;;;;;;;10.40;50.90;;;;;;10087840;28;20044;-65
2021/04/12 12:24:09;;;;;;;1.63;1.33;;;10.30;50.00;;;;;;10073763;28;20199;-66
2021/04/12 12:29:06;;;;;;;2.42;1.10;;;10.30;49.40;;;;;;10098728;28;20033;-64
2021/04/12 12:34:36;;;;;;;3.25;1.60;;;10.70;50.40;;;;;;10111474;28;20044;-66
2021/04/12 12:39:48;;;;;;;2.35;1.60;;;11.80;46.80;;;;;;10108184;28;20487;-64
2021/04/12 12:44:42;;;;;;;1.63;1.02;;;12.20;48.20;;;;;;10101301;28;20219;-62
2021/04/12 12:49:38;;;;;;;3.03;1.30;;;12.10;47.30;;;;;;10103005;28;20040;-64
2021/04/12 12:54:34;;;;;;;1.63;1.42;;;11.70;47.20;;;;;;10096958;28;20112;-62
2021/04/12 12:59:35;;;;;;;2.50;1.50;;;11.80;47.40;;;;;;10102691;28;20033;-63
2021/04/12 13:04:29;;;;;;;1.98;1.38;;;12.20;47.40;;;;;;10102266;28;20032;-66
2021/04/12 13:09:34;;;;;;;2.13;1.47;;;11.60;47.70;;;;;;10105984;28;20034;-65
2021/04/12 13:15:06;;;;;;;3.08;1.52;;;10.80;47.80;;;;;;10104878;28;20035;-63
2021/04/12 13:20:04;;;;;;;1.95;1.25;;;10.40;46.80;;;;;;10084057;28;20045;-65
2021/04/12 13:25:31;;;;;;;1.80;1.33;;;10.70;46.30;;;;;;10094876;28;20063;-65
2021/04/12 13:30:28;;;;;;;2.72;1.33;;;13.40;44.30;;;;;;10097373;28;20041;-65
2021/04/12 13:35:21;;;;;;;2.58;1.58;;;15.20;43.60;;;;;;10098939;28;20191;-64
2021/04/12 13:40:27;;;;;;;2.28;1.50;;;15.80;42.50;;;;;;10109973;28;20033;-62
2021/04/12 13:45:42;;;;;;;3.38;1.95;;;13.50;44.20;;;;;;10088846;28;20029;-64
2021/04/12 13:50:59;;;;;;;1.90;1.67;;;14.90;41.10;;;;;;10083999;28;20345;-68
2021/04/12 13:56:05;;;;;;;2.58;1.60;;;12.90;42.20;;;;;;10082282;28;20037;-65
2021/04/12 14:01:13;;;;;;;1.55;1.30;;;12.20;43.20;;;;;;10104289;28;20770;-63
2021/04/12 14:06:04;;;;;;;4.00;1.60;;;11.40;42.20;;;;;;10081531;28;20025;-63
2021/04/12 14:11:05;;;;;;;1.90;1.10;;;12.40;42.30;;;;;;10097580;28;20033;-63
2021/04/12 14:16:06;;;;;;;2.35;1.13;;;16.30;37.60;;;;;;10072060;28;20029;-63
2021/04/12 14:21:13;;;;;;;2.65;1.42;;;15.70;38.40;;;;;;10112577;28;20045;-64
2021/04/12 14:26:14;;;;;;;2.38;1.50;;;14.20;39.50;;;;;;10094044;28;20025;-66
2021/04/12 14:31:10;;;;;;;3.42;1.45;;;13.90;39.60;;;;;;10095415;28;20069;-64
2021/04/12 14:36:05;;;;;;;2.08;1.50;;;12.80;39.40;;;;;;10090416;28;20045;-66
2021/04/12 14:41:03;;;;;;;1.63;1.23;;;12.10;38.50;;;;;;10111271;28;20067;-64
2021/04/12 14:46:13;;;;;;;1.80;1.27;;;12.70;37.80;;;;;;10090551;28;20431;-67
2021/04/12 14:51:14;;;;;;;2.05;1.80;;;12.40;37.20;;;;;;10094894;28;20025;-65
2021/04/12 14:56:10;;;;;;;2.15;1.88;;;11.90;37.40;;;;;;10090829;28;20037;-68
2021/04/12 15:01:17;;;;;;;4.35;2.00;;;11.00;38.00;;;;;;10098949;28;20484;-69
2021/04/12 15:06:47;;;;;;;3.17;2.03;;;11.30;38.10;;;;;;10076039;28;20064;-63
2021/04/12 15:11:45;;;;;;;5.13;1.90;;;11.80;37.40;;;;;;10056923;28;20064;-65
2021/04/12 15:16:45;;;;;;;2.88;1.95;;;11.30;38.40;;;;;;10087315;28;20028;-66
2021/04/12 15:21:49;;;;;;;2.65;2.15;;;13.00;37.50;;;;;;10084131;28;20051;-65
2021/04/12 15:26:55;;;;;;;2.38;1.65;;;16.10;34.70;;;;;;10099171;28;20060;-66
2021/04/12 15:31:50;;;;;;;1.95;1.77;;;18.60;32.80;;;;;;10097317;28;20059;-63
2021/04/12 15:36:53;;;;;;;2.88;1.70;;;19.00;32.60;;;;;;10098057;28;20060;-65
2021/04/12 15:41:49;;;;;;;2.13;1.60;;;18.80;31.90;;;;;;10095874;28;20119;-67
2021/04/12 15:46:46;;;;;;;3.55;1.90;;;19.10;31.10;;;;;;10089380;28;20102;-69
2021/04/12 15:51:48;;;;;;;1.80;1.58;;;19.80;30.60;;;;;;10093639;28;20418;-68
2021/04/12 15:56:42;;;;;;;2.72;1.88;;;20.40;29.70;;;;;;10093559;28;20532;-67
2021/04/12 16:01:59;;;;;;;2.70;2.17;;;20.80;29.30;;;;;;10091272;28;20043;-66
2021/04/12 16:07:06;;;;;;;2.60;2.03;;;21.00;28.70;;;;;;10109844;28;20458;-64
2021/04/12 16:12:02;;;;;;;4.78;2.13;;;21.30;28.20;;;;;;10103140;28;20029;-67
2021/04/12 16:17:05;;;;;;;2.60;2.40;;;20.40;29.00;;;;;;10094540;28;20376;-63
2021/04/12 16:22:20;;;;;;;3.33;2.15;;;20.80;27.50;;;;;;10099589;28;20041;-65
2021/04/12 16:27:11;;;;;;;3.38;1.75;;;16.20;31.60;;;;;;10084125;28;20565;-64
2021/04/12 16:32:24;;;;;;;4.13;2.05;;;19.00;29.90;;;;;;10112191;28;20050;-65
2021/04/12 16:37:19;;;;;;;2.72;2.00;;;20.80;27.20;;;;;;10105641;28;20048;-63
2021/04/12 16:42:17;;;;;;;2.05;1.63;;;22.00;27.00;;;;;;10103676;28;20037;-64
2021/04/12 16:47:13;;;;;;;2.05;1.45;;;19.90;28.20;;;;;;10097038;28;20029;-65
2021/04/12 16:52:18;;;;;;;1.95;1.52;;;18.30;29.50;;;;;;10102344;28;20025;-68
2021/04/12 16:57:11;;;;;;;3.25;2.25;;;20.10;27.30;;;;;;10082102;28;20266;-65
2021/04/12 17:02:31;;;;;;;2.08;1.50;;;20.60;26.70;;;;;;10110016;28;20040;-67
2021/04/12 17:07:47;;;;;;;2.17;1.55;;;20.30;25.60;;;;;;10094594;28;20025;-67
2021/04/12 17:12:42;;;;;;;2.10;1.65;;;18.90;27.50;;;;;;10092561;28;20036;-67
2021/04/12 17:17:44;;;;;;;2.17;1.98;;;19.10;27.20;;;;;;10071362;28;20120;-63
2021/04/12 17:22:42;;;;;;;1.88;1.48;;;17.20;28.00;;;;;;10089513;28;20071;-65
2021/04/12 17:27:37;;;;;;;2.83;1.80;;;14.10;30.50;;;;;;10091820;28;20442;-67
2021/04/12 17:32:41;;;;;;;;;;;13.20;32.00;;;;;;10098167;28;20466;-65
2021/04/12 17:37:38;;;;;;;2.10;1.40;;;12.60;31.70;;;;;;10068605;28;19912;-68
2021/04/12 17:42:34;;;;;;;5.40;2.47;;;12.20;31.90;;;;;;10089624;28;20048;-67
2021/04/12 17:47:35;;;;;;;3.78;1.50;;;11.80;32.40;;;;;;10090840;28;20021;-66
2021/04/12 17:52:30;;;;;;;1.92;1.15;;;11.60;32.80;;;;;;10101513;28;20033;-64
2021/04/12 17:57:33;;;;;;;1.55;1.05;;;11.70;32.80;;;;;;10093832;28;20115;-66
2021/04/12 18:02:48;;;;;;;1.50;1.02;;;11.60;33.80;;;;;;10102441;28;20033;-63
2021/04/12 18:07:44;;;;;;;1.67;1.23;;;11.00;35.00;;;;;;10096021;28;20025;-65
2021/04/12 18:12:45;;;;;;;1.98;1.35;;;11.00;35.20;;;;;;10091927;28;20029;-64
2021/04/12 18:17:57;;;;;;;2.15;1.15;;;11.20;34.90;;;;;;10076231;28;20036;-65
2021/04/12 18:22:57;;;;;;;3.35;1.55;;;11.00;35.90;;;;;;10089989;28;20040;-63
2021/04/12 18:27:53;;;;;;;2.70;2.00;;;10.90;36.30;;;;;;10072622;28;20065;-64
2021/04/12 18:32:55;;;;;;;3.15;1.50;;;10.80;36.60;;;;;;10097020;28;20094;-62
2021/04/12 18:38:03;;;;;;;3.22;1.67;;;10.60;37.30;;;;;;10090534;28;20024;-63
2021/04/12 18:43:02;;;;;;;2.67;1.40;;;10.70;36.80;;;;;;10107365;28;20064;-63
2021/04/12 18:48:18;;;;;;;3.10;2.03;;;10.70;36.90;;;;;;10087087;28;20586;-64
2021/04/12 18:53:20;;;;;;;3.50;1.50;;;10.60;37.40;;;;;;10105527;28;20029;-64
2021/04/12 18:58:31;;;;;;;2.67;1.50;;;10.40;37.40;;;;;;10075815;28;20047;-64
2021/04/12 19:03:42;;;;;;;5.25;2.50;;;10.30;37.60;;;;;;10076946;28;20091;-63
2021/04/12 19:08:53;;;;;;;2.97;1.88;;;10.30;38.00;;;;;;10099140;28;20029;-64
2021/04/12 19:13:55;;;;;;;8.82;3.28;;;10.20;38.00;;;;;;10099304;28;20379;-65
2021/04/12 19:19:13;;;;;;;3.53;2.28;;;10.20;38.10;;;;;;10088305;28;20057;-64
2021/04/12 19:24:21;;;;;;;2.40;1.30;;;10.20;38.40;;;;;;10077881;28;20114;-65
2021/04/12 19:29:38;;;;;;;1.27;0.93;;;10.00;38.90;;;;;;10087688;28;20024;-66
2021/04/12 19:34:44;;;;;;;1.73;1.15;;;9.90;39.20;;;;;;10089715;28;20040;-62
2021/04/12 19:39:53;;;;;;;2.28;1.20;;;9.70;39.20;;;;;;10091751;28;20233;-66
2021/04/12 19:44:53;;;;;;;1.67;1.33;;;9.50;39.30;;;;;;10096540;28;20021;-63
2021/04/12 19:49:55;;;;;;;2.00;1.13;;;9.50;39.50;;;;;;10111396;28;20043;-65
2021/04/12 19:55:01;;;;;;;3.15;1.77;;;9.60;39.70;;;;;;10096079;28;20333;-63
2021/04/12 20:00:06;;;;;;;4.68;1.70;;;9.80;39.50;;;;;;10109700;28;20072;-65
2021/04/12 20:05:09;;;;;;;3.03;1.73;;;9.70;40.50;;;;;;10078891;28;20063;-63
2021/04/12 20:10:22;;;;;;;3.22;1.75;;;9.70;40.40;;;;;;10094522;28;20317;-64
2021/04/12 20:15:39;;;;;;;3.55;2.00;;;9.50;41.30;;;;;;10102486;28;20033;-63
2021/04/12 20:20:44;;;;;;;4.20;1.50;;;9.40;41.20;;;;;;10095380;28;20779;-65
2021/04/12 20:25:37;;;;;;;10.25;2.10;;;9.40;41.20;;;;;;10097526;28;20214;-67
2021/04/12 20:31:07;;;;;;;2.42;1.63;;;9.20;41.60;;;;;;10084672;28;20519;-64
2021/04/12 20:36:10;;;;;;;1.83;1.35;;;9.10;42.10;;;;;;10108187;28;20349;-69
2021/04/12 20:41:36;;;;;;;3.00;1.60;;;8.90;42.30;;;;;;10103496;28;20037;-65
2021/04/12 20:46:36;;;;;;;2.50;2.08;;;8.90;42.80;;;;;;10099184;28;20223;-66
2021/04/12 20:51:31;;;;;;;3.33;1.50;;;8.80;43.00;;;;;;10100669;28;20029;-65
2021/04/12 20:56:41;;;;;;;4.15;1.85;;;8.80;43.20;;;;;;10099377;28;20440;-63
2021/04/12 21:01:40;;;;;;;2.92;1.95;;;8.80;43.30;;;;;;10097850;28;20044;-64
2021/04/12 21:06:55;;;;;;;3.20;1.67;;;8.80;43.60;;;;;;10103097;28;20123;-63
2021/04/12 21:11:50;;;;;;;2.27;2.07;;;8.80;44.00;;;;;;10082558;28;20434;-64
2021/04/12 21:16:56;;;;;;;3.58;2.97;;;8.80;44.00;;;;;;10097204;28;20075;-64
2021/04/12 21:21:50;;;;;;;3.25;2.42;;;8.70;44.60;;;;;;10096289;28;20498;-63
2021/04/12 21:26:50;;;;;;;2.92;1.73;;;8.70;45.20;;;;;;10095213;28;20052;-64
2021/04/12 21:31:52;;;;;;;3.20;1.92;;;8.60;45.30;;;;;;10090274;28;20495;-65
2021/04/12 21:36:49;;;;;;;4.47;2.20;;;8.60;45.50;;;;;;10116428;28;20102;-64
2021/04/12 21:42:00;;;;;;;2.75;1.90;;;8.40;45.80;;;;;;10108884;28;20548;-62
2021/04/12 21:47:09;;;;;;;5.18;2.25;;;8.30;46.40;;;;;;10072493;28;20078;-61
2021/04/12 21:52:06;;;;;;;5.45;3.33;;;8.30;46.70;;;;;;10097060;28;20233;-61
2021/04/12 21:57:09;;;;;;;3.60;2.42;;;8.30;46.90;;;;;;10097685;28;20055;-67
2021/04/12 22:02:09;;;;;;;5.68;2.50;;;8.30;47.00;;;;;;10094075;28;20045;-62
2021/04/12 22:07:16;;;;;;;3.95;2.33;;;8.20;47.30;;;;;;10107449;28;20033;-62
2021/04/12 22:12:39;;;;;;;6.68;3.00;;;8.10;47.70;;;;;;10097324;28;20033;-63
2021/04/12 22:18:02;;;;;;;5.28;2.85;;;8.10;48.60;;;;;;10086928;28;20053;-61
2021/04/12 22:23:05;;;;;;;5.75;2.67;;;8.00;48.10;;;;;;10096664;28;20579;-62
2021/04/12 22:28:01;;;;;;;2.55;1.85;;;7.90;48.40;;;;;;10077392;28;20148;-62
2021/04/12 22:32:58;;;;;;;;;;;7.90;48.40;;;;;;10098087;28;20064;-63
2021/04/12 22:43:32;;;;;;;4.70;2.30;;;7.60;49.30;;;;;;10099583;28;20553;-62
2021/04/12 22:48:55;;;;;;;7.10;2.67;;;7.50;53.30;;;;;;10087503;28;20051;-62
2021/04/12 22:54:10;;;;;;;2.72;2.20;;;7.30;53.10;;;;;;10090440;28;20040;-64
2021/04/12 23:04:00;;;;;;;5.43;2.75;;;7.20;52.20;;;;;;10097571;28;20041;-61
2021/04/12 23:09:18;;;;;;;4.32;2.47;;;7.40;51.30;;;;;;10102145;28;20033;-65
2021/04/12 23:14:17;;;;;;;3.88;2.38;;;7.30;52.20;;;;;;10099129;28;20607;-62
2021/04/12 23:19:30;;;;;;;3.33;2.35;;;7.30;51.70;;;;;;10116504;28;20040;-63
2021/04/12 23:24:24;;;;;;;3.75;2.22;;;7.00;54.00;;;;;;10088871;28;20037;-66
2021/04/12 23:29:29;;;;;;;3.78;2.13;;;7.10;52.50;;;;;;10091340;28;20399;-63
2021/04/12 23:34:31;;;;;;;2.90;2.10;;;7.00;53.00;;;;;;10090301;28;20531;-64
2021/04/12 23:39:31;;;;;;;3.67;1.80;;;6.90;53.80;;;;;;10095103;28;20066;-62
2021/04/12 23:44:24;;;;;;;6.00;1.75;;;6.80;53.30;;;;;;10091530;28;20037;-62
2021/04/12 23:49:20;;;;;;;3.25;2.33;;;6.80;52.80;;;;;;10070019;28;20122;-63
2021/04/12 23:54:11;;;;;;;5.35;1.77;;;6.80;52.80;;;;;;10106784;28;20028;-62
2021/04/12 23:59:03;;;;;;;2.55;1.80;;;6.70;52.90;;;;;;10093886;28;20020;-62
